Time;durP1;ratioP1;P1;durP2;ratioP2;P2;SDS_P1;SDS_P2;PMS_P1;PMS_P2;Temp;Humidity;BMP_temperature;BMP_pressure;BME280_temperature;BME280_humidity;BME280_pressure;Samples;Min_cycle;Max_cycle;Signal;HPM_P1;HPM_P2
2023/02/02 00:01:45;;;;;;;39.05;9.00;;;9.80;99.90;;;10.01;88.86;102042.50;5071617;28;20052;-65
2023/02/02 00:04:18;;;;;;;33.35;7.45;;;9.80;99.90;;;10.04;88.42;102015.22;5072593;28;20045;-66
2023/02/02 00:06:47;;;;;;;31.52;8.38;;;9.90;99.90;;;9.97;88.51;102030.09;5088363;28;20135;-66
2023/02/02 00:09:18;;;;;;;36.75;9.15;;;9.80;99.90;;;10.02;88.25;102030.19;5072588;28;20040;-65
2023/02/02 00:11:49;;;;;;;39.45;8.60;;;9.90;99.90;;;9.97;88.34;102030.09;5071524;28;20098;-66
2023/02/02 00:14:18;;;;;;;35.88;8.40;;;9.90;99.90;;;9.90;88.29;102027.31;5072860;28;20053;-66
2023/02/02 00:16:47;;;;;;;32.33;8.13;;;9.80;99.90;;;10.00;88.36;102038.09;5072976;28;20040;-65
2023/02/02 00:19:19;;;;;;;34.25;8.52;;;9.80;99.90;;;9.96;87.92;102033.63;5072384;28;20098;-65
2023/02/02 00:21:48;;;;;;;38.35;9.52;;;9.80;99.90;;;10.02;87.96;102051.31;5072703;28;20041;-66
2023/02/02 00:24:18;;;;;;;33.70;8.68;;;9.90;99.90;;;9.98;87.98;102028.34;5072125;28;20123;-65
2023/02/02 00:26:50;;;;;;;38.78;8.43;;;9.90;99.90;;;9.89;88.22;102023.78;5073055;28;20068;-64
2023/02/02 00:29:22;;;;;;;35.55;7.60;;;9.80;99.90;;;9.72;88.14;101995.28;5073101;28;20040;-66
2023/02/02 00:31:51;;;;;;;37.65;8.57;;;9.80;99.90;;;9.93;88.29;102044.13;5072560;28;20093;-66
2023/02/02 00:34:20;;;;;;;39.40;9.10;;;9.80;99.90;;;10.00;88.43;102051.31;5088247;28;20048;-65
2023/02/02 00:36:50;;;;;;;38.83;8.40;;;9.80;99.90;;;9.87;88.39;102028.16;5072406;28;20075;-65
2023/02/02 00:39:24;;;;;;;31.00;8.70;;;9.80;99.90;;;9.93;88.85;102043.22;5071211;28;20045;-65
2023/02/02 00:41:54;;;;;;;44.30;8.18;;;9.80;99.90;;;9.27;88.94;101937.28;5072498;28;20040;-65
2023/02/02 00:47:08;;;;;;;34.22;8.73;;;9.70;99.90;;;9.88;89.28;102045.81;5072763;28;20048;-66
2023/02/02 00:49:37;;;;;;;42.00;9.25;;;9.70;99.90;;;9.88;89.61;102058.13;5072350;28;20072;-66
2023/02/02 00:52:05;;;;;;;39.00;8.27;;;9.70;99.90;;;9.85;89.48;102044.88;5071216;28;20044;-66
2023/02/02 00:54:33;;;;;;;40.35;8.90;;;9.70;99.90;;;9.89;89.68;102052.00;5072294;28;20033;-66
2023/02/02 00:57:04;;;;;;;34.88;8.57;;;9.70;99.90;;;9.93;89.55;102062.63;5070925;28;20110;-66
2023/02/02 00:59:33;;;;;;;43.25;8.82;;;9.80;99.90;;;9.96;88.93;102051.22;5072285;28;20051;-66
2023/02/02 01:02:01;;;;;;;35.67;8.18;;;9.80;99.90;;;9.89;89.07;102047.56;5072223;28;20033;-65
2023/02/02 01:04:30;;;;;;;43.90;9.20;;;9.80;99.90;;;9.86;89.49;102047.53;5072470;28;20098;-65
2023/02/02 01:06:58;;;;;;;41.97;9.70;;;9.70;99.90;;;9.97;89.37;102061.81;5072118;28;20052;-65
2023/02/02 01:09:27;;;;;;;40.58;9.68;;;9.80;99.90;;;9.97;88.94;102051.22;5071894;28;20084;-66
2023/02/02 01:11:55;;;;;;;34.90;8.32;;;9.80;99.90;;;9.95;88.96;102047.69;5071979;28;20131;-65
2023/02/02 01:14:27;;;;;;;37.17;8.15;;;9.80;99.90;;;10.11;88.69;102046.22;5071545;28;20060;-66
2023/02/02 01:16:56;;;;;;;42.75;8.70;;;9.90;99.90;;;10.07;88.55;102064.59;5071661;28;20068;-66
2023/02/02 01:19:26;;;;;;;40.55;8.13;;;9.90;99.90;;;10.05;88.50;102059.28;5070701;28;20044;-66
2023/02/02 01:21:55;;;;;;;43.72;7.97;;;9.90;99.90;;;10.10;88.80;102051.47;5071623;28;20505;-65
2023/02/02 01:24:23;;;;;;;36.85;8.13;;;9.90;99.90;;;9.98;88.99;102039.81;5070603;28;20045;-65
2023/02/02 01:26:51;;;;;;;34.47;8.20;;;9.90;99.90;;;10.08;88.93;102039.97;5072005;28;20067;-66
2023/02/02 01:29:20;;;;;;;35.17;8.23;;;9.90;99.90;;;9.98;88.93;102037.16;5070545;28;20144;-65
2023/02/02 01:31:49;;;;;;;34.10;8.27;;;9.80;99.90;;;10.01;89.33;102041.59;5071953;28;20437;-66
2023/02/02 01:34:18;;;;;;;34.33;8.27;;;9.80;99.90;;;9.98;88.98;102031.00;5070535;28;20072;-66
2023/02/02 01:36:47;;;;;;;47.90;9.63;;;9.80;99.90;;;9.95;88.98;102038.84;5072168;28;20048;-66
2023/02/02 01:39:15;;;;;;;36.53;8.27;;;9.80;99.90;;;9.96;88.98;102054.75;5075497;28;20048;-65
2023/02/02 01:41:43;;;;;;;26.02;7.28;;;9.80;99.90;;;9.91;89.42;102051.13;5075009;28;20052;-65
2023/02/02 01:45:09;;;;;;;33.03;8.05;;;9.70;99.90;;;9.92;89.26;102047.63;5075224;28;20040;-65
2023/02/02 01:47:47;;;;;;;39.80;8.27;;;9.80;99.90;;;9.95;89.76;102052.06;5075231;28;20059;-66
2023/02/02 01:50:18;;;;;;;39.20;8.75;;;9.70;99.90;;;9.87;89.00;102044.00;5073794;28;20143;-65
2023/02/02 01:52:49;;;;;;;;;;;9.80;99.90;;;9.86;89.35;102047.53;5075545;28;20067;-66
2023/02/02 01:55:22;;;;;;;33.67;8.18;;;9.70;99.90;;;9.90;89.30;102052.00;5074834;28;19966;-65
2023/02/02 01:57:56;;;;;;;33.40;8.07;;;9.70;99.90;;;9.89;89.53;102052.00;5073732;28;20041;-66
2023/02/02 02:00:26;;;;;;;37.70;8.23;;;9.70;99.90;;;9.86;89.58;102036.97;5073528;28;20539;-66
2023/02/02 02:03:01;;;;;;;31.50;7.80;;;9.70;99.90;;;9.82;89.57;102043.06;5074641;28;20559;-66
2023/02/02 02:05:35;;;;;;;42.40;8.45;;;9.70;99.90;;;9.77;90.10;102046.47;5073656;28;20502;-64
2023/02/02 02:08:12;;;;;;;35.22;8.65;;;9.70;99.90;;;9.75;90.33;102059.66;5075532;28;20128;-64
2023/02/02 02:10:40;;;;;;;37.97;7.75;;;9.60;99.90;;;9.77;90.39;102050.03;5074197;28;20045;-63
2023/02/02 02:13:09;;;;;;;42.08;8.82;;;9.60;99.90;;;9.82;90.38;102052.72;5074070;28;20051;-64
2023/02/02 02:18:45;;;;;;;35.67;8.63;;;9.60;99.90;;;9.75;90.63;102049.09;5075031;28;20131;-65
2023/02/02 02:28:34;;;;;;;34.05;7.75;;;9.60;99.90;;;9.66;90.40;102022.50;5075395;28;20048;-64
2023/02/02 02:31:47;;;;;;;30.98;8.32;;;9.60;99.90;;;9.69;90.83;102014.66;5047552;28;20051;-63
2023/02/02 02:34:26;;;;;;;38.00;8.68;;;9.70;99.90;;;9.72;90.65;102038.47;5073824;28;20119;-64
2023/02/02 02:37:04;;;;;;;34.45;8.70;;;9.60;99.90;;;9.06;90.72;101898.19;5073773;28;20098;-64
2023/02/02 02:39:38;;;;;;;34.50;8.07;;;9.60;99.90;;;9.86;90.50;102026.38;5073723;28;20052;-64
2023/02/02 02:42:15;;;;;;;35.50;9.43;;;9.70;99.90;;;9.90;90.38;102043.19;5073638;28;20402;-64
2023/02/02 02:44:45;;;;;;;33.38;8.07;;;9.70;99.90;;;9.75;90.53;102033.25;5073566;28;20518;-64
2023/02/02 02:47:13;;;;;;;37.88;8.35;;;9.70;99.90;;;9.83;90.62;102047.47;5074488;28;20087;-64
2023/02/02 02:49:45;;;;;;;31.08;7.93;;;9.70;99.90;;;9.88;90.27;102050.19;5073101;28;20050;-64
2023/02/02 02:52:14;;;;;;;32.88;7.95;;;9.70;99.90;;;9.70;90.48;102010.22;5074706;28;20045;-63
2023/02/02 02:54:48;;;;;;;30.27;7.75;;;9.70;99.90;;;9.91;89.99;102074.91;5074634;28;20041;-64
2023/02/02 02:57:38;;;;;;;29.95;8.10;;;9.70;99.90;;;9.82;89.95;102050.09;5074561;28;20043;-64
2023/02/02 03:00:26;;;;;;;32.70;7.20;;;9.70;99.90;;;9.81;90.10;102029.81;5073219;28;20044;-63
2023/02/02 03:03:02;;;;;;;33.50;8.27;;;9.70;99.90;;;9.93;90.27;102036.19;5074493;28;20046;-64
2023/02/02 03:05:43;;;;;;;40.30;8.50;;;9.70;99.90;;;9.86;89.89;102033.41;5074145;28;20040;-64
2023/02/02 03:08:17;;;;;;;41.65;7.60;;;9.70;99.90;;;9.95;89.74;102026.53;5074701;28;20127;-64
2023/02/02 03:10:47;;;;;;;31.60;7.72;;;9.80;99.90;;;9.98;89.58;102034.53;5074328;28;20459;-64
2023/02/02 03:13:16;;;;;;;30.48;7.97;;;9.80;99.90;;;9.89;89.94;102020.28;5073862;28;20049;-64
2023/02/02 03:15:46;;;;;;;37.13;8.02;;;9.70;99.90;;;9.34;89.66;101927.72;5073520;28;20057;-64
2023/02/02 03:18:18;;;;;;;37.70;8.57;;;9.80;99.90;;;9.91;90.13;102029.97;5073915;28;20083;-64
2023/02/02 03:20:47;;;;;;;31.05;7.65;;;9.80;99.90;;;9.76;89.82;102010.34;5073773;28;20554;-64
2023/02/02 03:23:16;;;;;;;30.63;8.20;;;9.70;99.90;;;9.83;90.25;102031.59;5073972;28;20051;-64
2023/02/02 03:25:45;;;;;;;33.88;8.07;;;9.70;99.90;;;9.89;90.06;102042.28;5073685;28;20136;-64
2023/02/02 03:28:14;;;;;;;38.13;8.25;;;9.70;99.90;;;9.75;90.31;102035.88;5073629;28;20048;-64
2023/02/02 03:30:44;;;;;;;34.08;7.53;;;9.70;99.90;;;9.89;90.02;102050.22;5073627;28;20519;-64
2023/02/02 03:33:15;;;;;;;41.55;8.15;;;9.70;99.90;;;9.62;90.52;102020.66;5073972;28;20079;-64
2023/02/02 03:35:43;;;;;;;31.00;8.02;;;9.70;99.90;;;9.82;90.65;102053.63;5073538;28;20049;-63
2023/02/02 03:38:13;;;;;;;32.78;7.78;;;9.70;99.90;;;9.78;90.85;102056.16;5073536;28;20087;-64
2023/02/02 03:40:41;;;;;;;42.20;8.37;;;9.60;99.90;;;9.76;90.91;102047.31;5073401;28;20059;-64
2023/02/02 03:43:10;;;;;;;37.85;8.77;;;9.60;99.90;;;9.80;90.77;102042.13;5073697;28;20048;-64
2023/02/02 03:45:39;;;;;;;34.78;8.68;;;9.70;99.90;;;9.89;90.97;102075.78;5073376;28;20033;-64
2023/02/02 03:48:08;;;;;;;36.83;8.85;;;9.70;99.90;;;9.86;90.80;102058.09;5073295;28;20045;-64
2023/02/02 03:50:37;;;;;;;26.05;7.30;;;9.70;99.90;;;9.90;90.95;102078.44;5073238;28;20040;-65
2023/02/02 03:53:06;;;;;;;45.90;8.57;;;9.70;99.90;;;9.85;91.61;102060.72;5073304;28;20056;-64
2023/02/02 03:55:37;;;;;;;32.67;7.47;;;9.70;99.90;;;9.88;91.10;102074.88;5073181;28;20047;-63
2023/02/02 03:58:06;;;;;;;34.33;8.40;;;9.70;99.90;;;9.81;91.53;102062.38;5073123;28;20051;-63
2023/02/02 04:00:37;;;;;;;35.22;7.78;;;9.70;99.90;;;9.45;91.44;102029.13;5072674;28;20486;-63
2023/02/02 04:03:06;;;;;;;37.17;8.38;;;9.60;99.90;;;9.74;91.91;102075.47;5073226;28;20041;-63
2023/02/02 04:05:34;;;;;;;32.40;7.93;;;9.60;99.90;;;9.84;91.31;102073.03;5073132;28;20032;-63
2023/02/02 04:08:02;;;;;;;32.17;7.25;;;9.60;99.90;;;9.76;91.16;102064.06;5073062;28;20048;-65
2023/02/02 04:10:31;;;;;;;35.67;8.32;;;9.70;99.90;;;9.85;91.08;102074.78;5073014;28;20040;-64
2023/02/02 04:13:03;;;;;;;33.65;7.05;;;9.70;99.90;;;9.87;90.51;102074.84;5073349;28;20536;-63
2023/02/02 04:15:32;;;;;;;31.70;8.32;;;9.70;99.90;;;9.91;90.10;102072.28;5071838;28;20102;-63
2023/02/02 04:18:02;;;;;;;33.25;7.53;;;9.70;99.90;;;10.03;89.61;102077.78;5073219;28;20036;-63
2023/02/02 04:20:30;;;;;;;28.33;7.63;;;9.80;99.90;;;9.94;90.13;102068.78;5073198;28;20041;-63
2023/02/02 04:22:59;;;;;;;25.45;7.07;;;9.80;99.90;;;9.95;90.18;102057.34;5071946;28;20159;-64
2023/02/02 04:25:28;;;;;;;27.40;7.18;;;9.90;99.90;;;10.02;89.76;102075.13;5072891;28;20574;-64
2023/02/02 04:27:56;;;;;;;28.48;7.65;;;9.90;99.90;;;9.66;90.08;102022.50;5072903;28;20044;-65
2023/02/02 04:30:26;;;;;;;24.98;7.20;;;9.80;99.90;;;9.98;90.06;102087.38;5073402;28;20051;-64
2023/02/02 04:32:55;;;;;;;32.60;7.70;;;9.80;99.90;;;9.86;90.23;102054.56;5073220;28;20045;-63
2023/02/02 04:35:23;;;;;;;30.52;8.00;;;9.80;99.90;;;9.99;89.89;102080.31;5073302;28;20863;-63
2023/02/02 04:37:52;;;;;;;32.92;7.57;;;9.80;99.90;;;9.87;90.04;102081.00;5072806;28;20485;-64
2023/02/02 04:40:20;;;;;;;30.52;7.40;;;9.80;99.90;;;9.96;89.75;102099.69;5072794;28;20076;-64
2023/02/02 04:42:52;;;;;;;37.67;9.07;;;9.80;99.90;;;9.98;89.92;102095.31;5071661;28;20098;-63
2023/02/02 04:45:20;;;;;;;28.60;7.97;;;9.80;99.90;;;10.09;89.57;102097.22;5073031;28;20052;-63
2023/02/02 04:47:51;;;;;;;26.17;6.88;;;9.90;99.90;;;9.57;89.88;102034.66;5072943;28;20041;-63
2023/02/02 04:50:19;;;;;;;28.98;6.55;;;9.80;99.90;;;9.92;89.83;102099.59;5073052;28;20536;-63
2023/02/02 04:52:48;;;;;;;31.88;7.53;;;9.80;99.90;;;9.93;89.72;102083.75;5071608;28;20131;-63
2023/02/02 04:55:16;;;;;;;36.22;8.05;;;9.80;99.90;;;9.85;89.62;102055.44;5072834;28;20066;-63
2023/02/02 04:57:45;;;;;;;33.75;8.13;;;9.90;99.90;;;10.21;88.95;102089.56;5072649;28;20379;-63
2023/02/02 05:00:15;;;;;;;29.95;6.85;;;10.00;99.90;;;10.16;89.15;102089.50;5072855;28;20044;-63
2023/02/02 05:02:44;;;;;;;27.33;7.60;;;10.00;99.90;;;10.08;88.92;102100.75;5088394;28;20486;-64
2023/02/02 05:05:14;;;;;;;34.30;7.85;;;9.90;99.90;;;10.03;88.86;102068.94;5072545;28;20135;-63
2023/02/02 05:07:43;;;;;;;27.58;7.45;;;10.00;99.90;;;10.11;89.16;102093.78;5072528;28;20127;-64
2023/02/02 05:10:12;;;;;;;35.67;8.45;;;9.90;99.90;;;8.11;88.69;101721.44;5073390;28;20044;-63
2023/02/02 05:12:43;;;;;;;35.15;7.70;;;10.00;99.90;;;10.15;88.87;102077.13;5076458;28;20094;-63
2023/02/02 05:15:12;;;;;;;25.98;7.15;;;10.00;99.90;;;10.15;89.01;102093.00;5075044;28;20490;-63
2023/02/02 05:17:40;;;;;;;29.40;7.47;;;10.00;99.90;;;10.10;89.27;102073.53;5076407;28;20071;-64
2023/02/02 05:20:11;;;;;;;30.95;7.13;;;9.90;99.90;;;10.08;89.46;102108.69;5091934;28;20589;-63
2023/02/02 05:22:40;;;;;;;33.20;7.82;;;9.90;99.90;;;10.08;89.10;102090.19;5076141;28;20379;-64
2023/02/02 05:25:10;;;;;;;33.20;7.88;;;9.90;99.90;;;10.13;88.89;102088.53;5076614;28;20067;-63
2023/02/02 05:27:38;;;;;;;26.45;7.80;;;9.90;99.90;;;9.86;88.90;102063.38;5075961;28;20131;-63
2023/02/02 05:30:09;;;;;;;29.92;8.32;;;9.90;99.90;;;9.56;88.64;101999.41;5075807;28;20055;-63
2023/02/02 05:32:37;;;;;;;34.58;7.97;;;10.00;99.90;;;9.89;89.22;102074.00;5091814;28;20452;-64
2023/02/02 05:35:08;;;;;;;33.13;9.05;;;9.90;99.90;;;9.98;89.32;102099.72;5075792;28;20055;-63
2023/02/02 05:37:37;;;;;;;32.40;7.88;;;9.80;99.90;;;9.81;88.89;102054.47;5074858;28;20057;-64
2023/02/02 05:40:08;;;;;;;31.70;7.30;;;9.90;99.90;;;10.02;88.88;102089.22;5075731;28;20372;-63
2023/02/02 05:42:37;;;;;;;32.42;8.40;;;9.90;99.90;;;9.92;89.21;102089.03;5075641;28;20076;-64
2023/02/02 05:45:06;;;;;;;29.85;7.78;;;9.80;99.90;;;10.00;89.44;102104.16;5075705;28;20068;-63
2023/02/02 05:47:35;;;;;;;29.98;7.68;;;9.80;99.90;;;10.09;89.38;102100.78;5075952;28;20068;-63
2023/02/02 05:50:03;;;;;;;24.25;7.40;;;9.90;99.90;;;10.05;89.15;102098.94;5074803;28;20071;-64
2023/02/02 05:52:35;;;;;;;28.50;6.90;;;9.90;99.90;;;9.90;89.75;102086.38;5075795;28;20445;-65
2023/02/02 05:55:06;;;;;;;22.52;7.15;;;9.80;99.90;;;9.96;89.99;102102.34;5074566;28;20475;-63
2023/02/02 05:57:35;;;;;;;27.27;7.63;;;9.80;99.90;;;9.74;90.05;102060.50;5075509;28;20045;-63
2023/02/02 06:00:05;;;;;;;28.65;7.55;;;9.80;99.90;;;10.00;89.82;102100.63;5075404;28;20045;-64
2023/02/02 06:02:39;;;;;;;32.53;7.93;;;9.80;99.90;;;9.77;90.29;102073.81;5075336;28;20467;-64
2023/02/02 06:05:08;;;;;;;33.60;7.68;;;9.80;99.90;;;9.82;89.85;102077.41;5075278;28;20037;-63
2023/02/02 06:07:37;;;;;;;27.52;7.63;;;9.90;99.90;;;9.89;90.44;102095.13;5075259;28;20139;-63
2023/02/02 06:10:08;;;;;;;26.15;7.07;;;9.80;99.90;;;9.96;90.42;102114.66;5075265;28;20059;-63
2023/02/02 06:12:36;;;;;;;;;;;9.80;99.90;;;9.93;90.28;102107.53;5075711;28;20051;-63
2023/02/02 06:15:06;;;;;;;30.73;8.25;;;9.80;99.90;;;10.04;89.89;102121.84;5075223;28;20369;-63
2023/02/02 06:17:34;;;;;;;35.95;8.57;;;9.90;99.90;;;9.85;89.74;102082.72;5075098;28;20063;-64
2023/02/02 06:20:04;;;;;;;38.15;8.27;;;9.90;99.90;;;9.87;90.01;102088.06;5075004;28;20049;-64
2023/02/02 06:22:33;;;;;;;32.72;8.13;;;9.90;99.90;;;10.12;89.59;102123.78;5074174;28;20131;-64
2023/02/02 06:25:03;;;;;;;30.25;7.90;;;9.90;99.90;;;10.09;89.00;102121.03;5075230;28;20058;-64
2023/02/02 06:27:32;;;;;;;30.52;8.68;;;10.00;99.90;;;10.03;89.54;102133.28;5074849;28;20619;-64
2023/02/02 06:30:01;;;;;;;31.07;7.30;;;9.90;99.90;;;9.76;88.88;102084.31;5075104;28;20102;-65
2023/02/02 06:32:30;;;;;;;30.77;7.78;;;9.90;99.90;;;9.87;89.70;102133.84;5074765;28;20045;-64
2023/02/02 06:34:58;;;;;;;36.28;8.52;;;9.80;99.90;;;9.99;89.98;102160.53;5074902;28;20060;-64
2023/02/02 06:37:26;;;;;;;26.45;7.13;;;9.80;99.90;;;10.02;89.76;102167.63;5074664;28;20094;-64
2023/02/02 06:39:57;;;;;;;28.13;8.15;;;9.80;99.90;;;10.07;89.63;102167.69;5075213;28;20044;-64
2023/02/02 06:42:26;;;;;;;38.42;7.80;;;9.90;99.90;;;9.71;90.28;102118.59;5074465;28;20086;-64
2023/02/02 06:44:58;;;;;;;32.83;9.02;;;9.80;99.90;;;9.83;90.30;102115.28;5074846;28;20036;-65
2023/02/02 06:47:26;;;;;;;36.53;7.43;;;9.80;99.90;;;10.03;90.22;102156.19;5074522;28;20087;-64
2023/02/02 06:49:55;;;;;;;25.15;7.45;;;9.80;99.90;;;10.03;89.80;102151.78;5074764;28;20063;-64
2023/02/02 06:52:23;;;;;;;25.70;7.40;;;9.80;99.90;;;10.05;89.82;102122.72;5074316;28;20494;-64
2023/02/02 06:54:52;;;;;;;26.33;7.28;;;9.90;99.90;;;10.07;89.50;102152.72;5074325;28;20037;-64
2023/02/02 06:57:20;;;;;;;32.15;7.65;;;9.90;99.90;;;9.83;89.50;102110.00;5074592;28;20119;-64
2023/02/02 06:59:50;;;;;;;25.50;7.50;;;9.80;99.90;;;9.93;89.42;102131.31;5074256;28;20040;-64
2023/02/02 07:02:22;;;;;;;27.45;7.80;;;9.80;99.90;;;10.05;88.97;102138.59;5073140;28;20453;-63
2023/02/02 07:04:51;;;;;;;27.52;7.20;;;9.90;99.90;;;10.01;88.80;102145.59;5073095;28;20068;-64
2023/02/02 07:07:20;;;;;;;29.52;7.53;;;9.80;99.90;;;9.94;88.44;102149.00;5074304;28;20479;-64
2023/02/02 07:09:48;;;;;;;27.30;7.35;;;9.80;99.90;;;10.06;88.26;102161.53;5072863;28;20565;-64
2023/02/02 07:12:27;;;;;;;32.42;8.50;;;9.90;99.90;;;10.11;88.24;102165.19;5074230;28;20067;-64
2023/02/02 07:14:58;;;;;;;24.85;7.10;;;9.90;99.90;;;9.49;88.03;102055.66;5073700;28;20076;-64
2023/02/02 07:17:28;;;;;;;;;;;9.90;99.90;;;7.84;87.93;101790.25;5074572;28;20143;-64
2023/02/02 07:19:56;;;;;;;24.35;6.53;;;9.90;99.90;;;9.95;88.07;102153.41;5072866;28;19983;-64
2023/02/02 07:22:25;;;;;;;28.50;6.90;;;9.90;99.90;;;9.67;88.17;102116.75;5073702;28;20486;-64
2023/02/02 07:24:53;;;;;;;24.92;6.40;;;9.80;99.90;;;10.00;88.03;102175.53;5073729;28;20079;-64
2023/02/02 07:27:21;;;;;;;25.85;7.15;;;9.80;99.90;;;10.05;88.10;102186.19;5073867;28;20039;-64
2023/02/02 07:29:50;;;;;;;28.77;7.57;;;9.80;99.90;;;9.99;88.21;102186.06;5072191;28;20067;-64
2023/02/02 07:32:18;;;;;;;24.75;6.22;;;9.80;99.90;;;9.46;88.50;102108.41;5072749;28;20044;-64
2023/02/02 07:34:48;;;;;;;23.60;6.63;;;9.80;99.90;;;9.72;88.82;102146.78;5072521;28;20049;-63
2023/02/02 07:37:17;;;;;;;24.20;6.67;;;9.80;99.90;;;9.88;88.83;102209.66;5073508;28;20059;-63
2023/02/02 07:39:45;;;;;;;26.50;7.20;;;9.70;99.90;;;9.87;88.90;102205.22;5073473;28;20049;-63
2023/02/02 07:42:14;;;;;;;27.13;7.32;;;9.70;99.90;;;9.51;89.18;102125.22;5073340;28;20479;-64
2023/02/02 07:44:42;;;;;;;24.85;7.43;;;9.80;99.90;;;9.73;89.52;102201.44;5072172;28;20055;-64
2023/02/02 07:47:11;;;;;;;25.83;6.95;;;9.60;99.90;;;9.77;89.87;102223.50;5073508;28;20048;-63
2023/02/02 07:49:39;;;;;;;28.30;7.15;;;9.60;99.90;;;9.77;90.22;102219.13;5073573;28;20043;-64
2023/02/02 07:52:11;;;;;;;30.65;7.68;;;9.60;99.90;;;9.76;90.21;102209.41;5073212;28;20444;-64
2023/02/02 07:54:40;;;;;;;30.95;7.63;;;9.60;99.90;;;9.75;90.66;102220.84;5073252;28;20043;-64
2023/02/02 07:57:12;;;;;;;33.65;7.80;;;9.60;99.90;;;9.70;91.07;102217.19;5073516;28;20040;-67
2023/02/02 07:59:41;;;;;;;30.85;7.30;;;9.50;99.90;;;9.77;90.65;102205.91;5073261;28;20097;-66
2023/02/02 08:02:10;;;;;;;29.75;7.82;;;9.60;99.90;;;9.89;90.47;102222.00;5073122;28;20032;-64
2023/02/02 08:04:38;;;;;;;29.17;7.55;;;9.70;99.90;;;9.76;90.51;102221.72;5073275;28;20101;-64
2023/02/02 08:07:07;;;;;;;35.70;7.65;;;9.70;99.90;;;9.70;91.20;102204.00;5072938;28;20082;-63
2023/02/02 08:09:39;;;;;;;37.40;8.13;;;9.60;99.90;;;9.51;91.27;102177.16;5072098;28;20048;-63
2023/02/02 08:12:08;;;;;;;32.00;7.30;;;9.60;99.90;;;9.57;91.05;102185.22;5073081;28;20107;-63
2023/02/02 08:14:36;;;;;;;34.75;7.50;;;9.60;99.90;;;9.46;90.99;102152.41;5072792;28;20067;-64
2023/02/02 08:17:07;;;;;;;31.00;7.88;;;9.60;99.90;;;9.75;90.51;102222.59;5072992;28;20072;-63
2023/02/02 08:19:36;;;;;;;30.38;6.97;;;9.60;99.90;;;9.81;90.75;102234.16;5073368;28;20048;-64
2023/02/02 08:22:04;;;;;;;31.30;7.53;;;9.60;99.90;;;9.88;90.29;102224.59;5073273;28;20042;-64
2023/02/02 08:24:33;;;;;;;29.00;7.05;;;9.70;99.90;;;9.88;90.30;102225.50;5072735;28;20093;-64
2023/02/02 08:27:05;;;;;;;28.27;7.70;;;9.70;99.90;;;9.82;90.95;102235.94;5073118;28;20371;-64
2023/02/02 08:29:34;;;;;;;31.48;7.38;;;9.70;99.90;;;9.84;90.99;102243.91;5073180;28;20489;-63
2023/02/02 08:32:03;;;;;;;28.55;7.53;;;9.60;99.90;;;9.92;90.47;102243.22;5072680;28;20399;-63
2023/02/02 08:34:33;;;;;;;30.42;7.30;;;9.70;99.90;;;9.98;90.12;102248.63;5073006;28;20056;-65
2023/02/02 08:37:02;;;;;;;32.50;7.45;;;9.80;99.90;;;9.57;90.06;102188.75;5072795;28;20505;-64
2023/02/02 08:39:30;;;;;;;29.95;7.05;;;9.80;99.90;;;9.91;90.36;102246.69;5072767;28;20443;-64
2023/02/02 08:41:59;;;;;;;29.25;7.32;;;9.80;99.90;;;9.79;89.92;102225.31;5072907;28;20048;-64
2023/02/02 08:44:29;;;;;;;34.40;7.55;;;9.80;99.90;;;10.00;89.97;102257.47;5072572;28;20040;-64
2023/02/02 08:47:17;;;;;;;26.57;7.57;;;9.80;99.90;;;10.00;89.90;102257.47;5075676;28;20490;-64
2023/02/02 08:49:46;;;;;;;25.75;6.80;;;9.80;99.90;;;10.02;89.29;102233.72;5075437;28;20370;-64
2023/02/02 08:52:14;;;;;;;32.45;7.22;;;9.90;99.90;;;10.04;89.44;102261.06;5077062;28;20049;-64
2023/02/02 08:54:43;;;;;;;27.88;7.05;;;9.90;99.90;;;10.15;89.22;102266.59;5076489;28;20074;-64
2023/02/02 08:57:11;;;;;;;27.42;7.55;;;9.90;99.90;;;10.16;89.36;102252.53;5075381;28;20045;-65
2023/02/02 08:59:41;;;;;;;35.55;7.95;;;10.00;99.90;;;9.57;88.83;102162.34;5076367;28;20037;-64
2023/02/02 09:02:12;;;;;;;29.60;8.23;;;10.00;99.90;;;9.99;89.27;102245.09;5076751;28;20041;-64
2023/02/02 09:04:44;;;;;;;29.88;7.88;;;10.00;99.90;;;9.84;89.17;102233.34;5076239;28;20564;-65
2023/02/02 09:07:12;;;;;;;29.95;6.80;;;10.00;99.90;;;10.22;89.22;102292.31;5076765;28;20048;-64
2023/02/02 09:09:41;;;;;;;26.55;7.35;;;10.00;99.90;;;10.21;88.76;102285.22;5076018;28;20072;-64
2023/02/02 09:12:09;;;;;;;37.22;8.00;;;10.10;99.90;;;10.32;88.55;102300.44;5076047;28;20066;-64
2023/02/02 09:14:37;;;;;;;34.15;8.23;;;10.10;99.90;;;10.39;88.93;102282.94;5075789;28;20063;-64
2023/02/02 09:17:07;;;;;;;27.92;7.22;;;10.20;99.90;;;10.30;88.39;102296.88;5076397;28;20123;-65
2023/02/02 09:19:36;;;;;;;26.73;7.53;;;10.20;99.90;;;10.00;88.84;102238.06;5076074;28;20072;-65
2023/02/02 09:22:04;;;;;;;33.50;7.28;;;10.10;99.90;;;10.30;88.86;102290.72;5075905;28;20301;-64
2023/02/02 09:24:32;;;;;;;30.90;7.90;;;10.10;99.90;;;10.38;88.92;102294.38;5076184;28;20123;-65
2023/02/02 09:27:01;;;;;;;31.55;6.43;;;10.10;99.90;;;10.64;88.43;102298.41;5074866;28;20495;-65
2023/02/02 09:29:29;;;;;;;27.90;7.60;;;10.40;99.90;;;10.79;87.51;102290.72;5075879;28;20053;-64
2023/02/02 09:31:58;;;;;;;30.30;7.10;;;10.50;99.90;;;10.68;86.72;102250.84;5075912;28;20079;-64
2023/02/02 09:34:28;;;;;;;31.75;7.55;;;10.70;99.90;;;11.13;86.00;102300.16;5075717;28;20413;-65
2023/02/02 09:36:57;;;;;;;28.50;7.47;;;10.90;99.90;;;11.29;84.95;102313.66;5075842;28;20532;-64
2023/02/02 09:39:25;;;;;;;26.63;7.22;;;11.10;99.90;;;11.29;84.20;102302.16;5075727;28;20078;-65
2023/02/02 09:42:32;;;;;;;26.30;7.57;;;11.10;99.90;;;11.36;83.47;102299.63;5075597;28;20079;-64
2023/02/02 09:45:08;;;;;;;29.70;7.40;;;11.20;99.90;;;11.42;82.97;102304.16;5075785;28;20040;-65
2023/02/02 09:47:54;;;;;;;32.00;7.32;;;11.20;99.90;;;11.33;82.86;102286.34;5075651;28;20525;-64
2023/02/02 09:50:40;;;;;;;33.03;7.82;;;11.20;99.90;;;11.47;82.73;102300.69;5075089;28;20060;-64
2023/02/02 09:53:18;;;;;;;24.83;6.72;;;11.30;99.90;;;11.38;82.43;102275.81;5075570;28;20512;-64
2023/02/02 09:55:52;;;;;;;27.58;6.95;;;11.30;99.90;;;11.33;82.41;102282.78;5075591;28;20049;-64
2023/02/02 09:58:26;;;;;;;24.38;6.38;;;11.30;99.90;;;11.34;82.34;102301.34;5074513;28;20036;-64
2023/02/02 10:01:03;;;;;;;32.95;6.82;;;11.20;99.90;;;11.23;82.23;102310.91;5075348;28;20079;-65
2023/02/02 10:03:37;;;;;;;30.48;7.55;;;11.10;99.90;;;11.03;82.35;102291.16;5075572;28;20546;-65
2023/02/02 10:06:21;;;;;;;29.35;7.63;;;11.00;99.90;;;11.14;82.16;102305.47;5075262;28;20490;-65
2023/02/02 10:08:55;;;;;;;25.42;6.57;;;11.00;99.90;;;11.05;82.53;102315.00;5074324;28;20052;-65
2023/02/02 10:11:33;;;;;;;25.15;6.60;;;10.90;99.90;;;11.07;82.70;102324.75;5074164;28;20536;-64
2023/02/02 10:14:06;;;;;;;26.15;5.78;;;10.90;99.90;;;10.92;82.88;102319.19;5075205;28;20461;-65
2023/02/02 10:16:36;;;;;;;22.58;6.85;;;10.80;99.90;;;10.19;82.48;102197.94;5073895;28;20087;-64
2023/02/02 10:19:11;;;;;;;22.83;6.10;;;10.70;99.90;;;10.83;82.63;102306.72;5075175;28;20041;-64
2023/02/02 10:21:48;;;;;;;24.83;6.82;;;10.80;99.90;;;10.85;82.54;102322.59;5075038;28;20407;-64
2023/02/02 10:24:20;;;;;;;22.50;6.70;;;10.70;99.90;;;10.88;83.07;102304.13;5075126;28;20044;-64
2023/02/02 10:26:51;;;;;;;26.60;6.15;;;10.80;99.90;;;11.06;82.48;102316.78;5074872;28;20044;-64
2023/02/02 10:29:33;;;;;;;24.55;6.50;;;10.90;99.90;;;11.02;82.60;102315.84;5075245;28;20393;-64
2023/02/02 10:32:23;;;;;;;24.30;6.85;;;10.90;99.90;;;11.18;82.18;102307.28;5075014;28;20359;-64
2023/02/02 10:35:16;;;;;;;26.13;7.13;;;11.10;99.90;;;11.09;82.09;102338.91;5074733;28;20048;-65
2023/02/02 10:37:55;;;;;;;22.17;6.15;;;10.90;99.90;;;9.30;82.01;102013.91;5073521;28;20616;-65
2023/02/02 10:40:40;;;;;;;24.88;6.97;;;11.10;99.90;;;11.27;82.12;102339.22;5074594;28;20086;-65
2023/02/02 10:43:53;;;;;;;22.85;7.03;;;11.10;99.90;;;11.31;82.10;102346.34;5074733;28;20402;-64
2023/02/02 10:46:27;;;;;;;28.20;6.43;;;11.10;99.90;;;11.44;81.78;102345.66;5046567;28;20127;-64